Current | Forecast
Updated: 11:00 PM CEST on October 23, 2018
Observed at Santander Airport, Spain
Temperature 12°C
Humidity 100%
Dew Point 12°C
Wind Variable at 2 km/h
Pressure 1032 hPa (Rising)
Conditions Partly Cloudy
Visibility 10.0 kilometers
UV 0 out of 16
Clouds (FEW) : 548 m
Yesterday's Maximum 20°C
Yesterday's Minimum 14°C approx.
Yesterday's Heating Degree Days 2 approx.
Sunrise8:36 AM CEST
Sunset7:15 PM CEST
Moon Rise7:38 PM CEST
Moon Set8:01 AM CEST
Moon PhaseMoon Phase
Waxing Gibbous
Raw METARMETAR LEXJ 232100Z VRB01KT 9999 FEW018 12/12 Q1032



Click here for Marine Information
Scientific forecaster discussion (NWS)

Units: English | Metric

Find the Weather for any City, State or Zipcode, or Country:

U.S. State List | Severe Weather | Tropical Storms | Ski Conditions
United States | Canada | Central America | South America | Asia | Europe | Australia | Africa | Islands

Weather Underground

© Copyright 2018
The Weather Company, LLC